createdAt,value
2023-03-08T00:01:22.860Z,12.80
2023-03-08T00:03:55.719Z,11.20
2023-03-08T00:06:25.442Z,11.40
2023-03-08T00:08:58.583Z,10.70
2023-03-08T00:11:27.772Z,9.00
2023-03-08T00:13:55.748Z,10.70
2023-03-08T00:16:24.876Z,13.90
2023-03-08T00:18:52.836Z,14.50
2023-03-08T00:21:20.807Z,14.70
2023-03-08T00:23:51.389Z,13.50
2023-03-08T00:26:19.320Z,15.00
2023-03-08T00:28:47.512Z,13.60
2023-03-08T00:31:15.618Z,13.10
2023-03-08T00:33:43.598Z,12.00
2023-03-08T00:36:19.326Z,9.30
2023-03-08T00:38:48.777Z,11.30
2023-03-08T00:41:16.634Z,6.20
2023-03-08T00:43:44.954Z,6.40
2023-03-08T00:46:14.085Z,5.30
2023-03-08T00:48:42.779Z,5.50
2023-03-08T00:51:14.601Z,5.40
2023-03-08T00:53:42.559Z,8.40
2023-03-08T00:56:11.191Z,7.10
2023-03-08T00:58:40.903Z,6.90
2023-03-08T01:01:14.161Z,8.40
2023-03-08T01:03:42.249Z,7.30
2023-03-08T01:06:13.494Z,7.60
2023-03-08T01:08:42.754Z,8.20
2023-03-08T01:11:23.470Z,7.40
2023-03-08T01:13:52.991Z,7.90
2023-03-08T01:16:24.626Z,8.00
2023-03-08T01:18:52.904Z,9.50
2023-03-08T01:21:22.191Z,8.80
2023-03-08T01:23:51.066Z,8.30
2023-03-08T01:26:21.959Z,8.90
2023-03-08T01:28:50.681Z,7.70
2023-03-08T01:31:26.951Z,7.90
2023-03-08T01:33:56.596Z,7.80
2023-03-08T01:36:26.980Z,8.00
2023-03-08T01:38:55.173Z,7.90
2023-03-08T01:41:27.631Z,9.10
2023-03-08T01:43:56.564Z,10.40
2023-03-08T01:46:30.964Z,14.40
2023-03-08T01:49:21.455Z,11.60
2023-03-08T01:52:07.103Z,12.60
2023-03-08T01:54:46.932Z,11.20
2023-03-08T01:57:20.695Z,12.80
2023-03-08T02:02:28.347Z,10.90
2023-03-08T02:04:57.049Z,11.90
2023-03-08T02:07:27.196Z,11.10
2023-03-08T02:09:55.357Z,8.90
2023-03-08T02:12:23.440Z,8.00
2023-03-08T02:14:51.292Z,7.70
2023-03-08T02:17:19.463Z,8.60
2023-03-08T02:20:32.309Z,6.80
2023-03-08T02:23:14.522Z,6.50
2023-03-08T02:25:51.585Z,5.10
2023-03-08T02:28:21.761Z,4.00
2023-03-08T02:30:50.545Z,5.70
2023-03-08T02:33:18.844Z,4.70
2023-03-08T02:35:46.920Z,4.80
2023-03-08T02:38:17.688Z,4.60
2023-03-08T02:40:46.168Z,6.10
2023-03-08T02:43:14.229Z,5.50
2023-03-08T02:45:42.120Z,4.50
2023-03-08T02:48:10.310Z,5.20
2023-03-08T02:50:38.555Z,3.50
2023-03-08T02:53:07.333Z,3.70
2023-03-08T02:55:36.448Z,7.20
2023-03-08T03:00:38.676Z,5.30
2023-03-08T03:03:06.860Z,5.40
2023-03-08T03:05:34.812Z,5.50
2023-03-08T03:08:05.853Z,5.00
2023-03-08T03:10:36.139Z,4.00
2023-03-08T03:13:05.557Z,4.60
2023-03-08T03:15:34.442Z,5.70
2023-03-08T03:18:02.394Z,5.80
2023-03-08T03:20:30.331Z,6.00
2023-03-08T03:22:58.809Z,7.50
2023-03-08T03:27:59.793Z,6.00
2023-03-08T03:30:28.582Z,6.40
2023-03-08T03:32:56.761Z,11.90
2023-03-08T03:35:28.078Z,11.20
2023-03-08T03:37:56.485Z,7.10
2023-03-08T03:40:24.672Z,5.60
2023-03-08T03:42:56.791Z,4.80
2023-03-08T03:45:25.245Z,4.20
2023-03-08T03:47:53.423Z,5.80
2023-03-08T03:50:21.568Z,5.40
2023-03-08T03:52:54.276Z,8.10
2023-03-08T03:55:22.738Z,5.50
2023-03-08T03:57:50.924Z,5.70
2023-03-08T04:00:19.131Z,4.20
2023-03-08T04:02:52.395Z,4.40
2023-03-08T04:05:21.460Z,4.20
2023-03-08T04:07:52.043Z,5.30
2023-03-08T04:10:20.569Z,5.30
2023-03-08T04:12:49.624Z,4.00
2023-03-08T04:15:19.180Z,4.30
2023-03-08T04:17:47.313Z,6.00
2023-03-08T04:20:15.370Z,4.60
2023-03-08T04:22:47.750Z,5.00
2023-03-08T04:25:20.433Z,5.60
2023-03-08T04:27:53.912Z,5.40
2023-03-08T04:30:21.896Z,5.50
2023-03-08T04:32:50.738Z,6.00
2023-03-08T04:35:19.301Z,4.20
2023-03-08T04:37:49.779Z,6.20
2023-03-08T04:40:18.550Z,3.20
2023-03-08T04:42:52.458Z,3.60
2023-03-08T04:45:24.442Z,4.10
2023-03-08T04:47:52.686Z,4.70
2023-03-08T04:50:21.070Z,5.80
2023-03-08T04:52:49.167Z,4.70
2023-03-08T04:55:17.626Z,5.20
2023-03-08T04:57:46.301Z,5.50
2023-03-08T05:00:14.807Z,6.30
2023-03-08T05:02:43.577Z,9.50
2023-03-08T05:05:14.985Z,7.40
2023-03-08T05:07:43.044Z,9.10
2023-03-08T05:10:11.682Z,6.60
2023-03-08T05:12:41.723Z,8.10
2023-03-08T05:15:11.068Z,7.30
2023-03-08T05:17:39.027Z,7.00
2023-03-08T05:20:08.179Z,4.70
2023-03-08T05:22:55.104Z,5.50
2023-03-08T05:25:25.743Z,7.00
2023-03-08T05:27:54.151Z,7.60
2023-03-08T05:30:22.724Z,9.00
2023-03-08T05:32:51.184Z,11.30
2023-03-08T05:35:19.640Z,11.80
2023-03-08T05:37:48.332Z,10.20
2023-03-08T05:40:16.560Z,9.40
2023-03-08T05:42:44.773Z,11.80
2023-03-08T05:45:13.486Z,4.60
2023-03-08T05:47:41.842Z,2.80
2023-03-08T05:50:11.184Z,4.90
2023-03-08T05:52:42.622Z,3.90
2023-03-08T05:55:13.264Z,5.30
2023-03-08T05:57:41.897Z,8.00
2023-03-08T06:00:11.417Z,9.60
2023-03-08T06:02:47.457Z,10.90
2023-03-08T06:05:15.682Z,11.60
2023-03-08T06:07:44.583Z,10.20
2023-03-08T06:10:14.225Z,16.60
2023-03-08T06:12:42.215Z,16.00
2023-03-08T06:15:13.298Z,19.30
2023-03-08T06:17:42.154Z,15.20
2023-03-08T06:20:11.360Z,16.60
2023-03-08T06:22:41.605Z,17.80
2023-03-08T06:25:10.088Z,12.30
2023-03-08T06:27:38.315Z,11.70
2023-03-08T06:30:12.171Z,14.80
2023-03-08T06:32:40.504Z,15.30
2023-03-08T06:35:09.485Z,14.00
2023-03-08T06:37:40.130Z,18.30
2023-03-08T06:40:12.001Z,18.40
2023-03-08T06:42:41.718Z,14.50
2023-03-08T06:45:13.003Z,14.20
2023-03-08T06:47:41.008Z,20.40
2023-03-08T06:50:10.328Z,17.40
2023-03-08T06:52:39.267Z,16.10
2023-03-08T06:55:08.449Z,18.90
2023-03-08T06:57:36.421Z,17.80
2023-03-08T07:00:04.860Z,20.50
2023-03-08T07:02:32.728Z,14.80
2023-03-08T07:05:00.788Z,19.20
2023-03-08T07:07:28.741Z,17.50
2023-03-08T07:09:58.020Z,16.30
2023-03-08T07:12:25.908Z,17.70
2023-03-08T07:14:53.776Z,18.70
2023-03-08T07:17:21.699Z,26.70
2023-03-08T07:19:49.561Z,21.60
2023-03-08T07:22:17.530Z,25.10
2023-03-08T07:24:49.594Z,17.20
2023-03-08T07:27:17.849Z,17.10
2023-03-08T07:29:45.730Z,14.20
2023-03-08T07:32:13.928Z,17.50
2023-03-08T07:34:42.328Z,15.10
2023-03-08T07:37:14.973Z,17.00
2023-03-08T07:39:43.291Z,13.60
2023-03-08T07:42:11.351Z,12.10
2023-03-08T07:44:40.085Z,14.50
2023-03-08T07:47:08.258Z,16.70
2023-03-08T07:49:36.661Z,21.40
2023-03-08T07:52:05.052Z,22.10
2023-03-08T07:54:32.994Z,25.20
2023-03-08T07:57:00.879Z,30.60
2023-03-08T07:59:28.964Z,28.40
2023-03-08T08:01:57.087Z,15.50
2023-03-08T08:04:25.347Z,19.00
2023-03-08T08:06:53.384Z,24.30
2023-03-08T08:09:21.317Z,15.10
2023-03-08T08:11:49.231Z,11.20
2023-03-08T08:14:17.483Z,16.40
2023-03-08T08:16:45.574Z,14.30
2023-03-08T08:19:14.803Z,13.10
2023-03-08T08:21:43.218Z,12.60
2023-03-08T08:24:11.192Z,12.30
2023-03-08T08:26:39.369Z,13.10
2023-03-08T08:29:07.976Z,10.10
2023-03-08T08:31:35.913Z,8.30
2023-03-08T08:34:03.912Z,14.00
2023-03-08T08:36:31.958Z,11.10
2023-03-08T08:39:00.085Z,17.20
2023-03-08T08:41:29.776Z,50.40
2023-03-08T08:44:00.141Z,10.70
2023-03-08T08:46:28.812Z,11.00
2023-03-08T08:48:58.769Z,23.70
2023-03-08T08:51:27.303Z,18.10
2023-03-08T08:53:55.609Z,19.80
2023-03-08T08:56:28.154Z,26.60
2023-03-08T08:59:02.870Z,14.50
2023-03-08T09:01:33.428Z,16.40
2023-03-08T09:04:01.420Z,17.10
2023-03-08T09:06:31.009Z,18.80
2023-03-08T09:08:59.085Z,10.00
2023-03-08T09:11:28.209Z,12.10
2023-03-08T09:13:56.456Z,12.40
2023-03-08T09:16:28.450Z,12.20
2023-03-08T09:18:57.823Z,12.50
2023-03-08T09:21:26.762Z,11.20
2023-03-08T09:23:55.986Z,10.90
2023-03-08T09:26:23.928Z,10.70
2023-03-08T09:28:51.777Z,13.80
2023-03-08T09:31:19.819Z,10.70
2023-03-08T09:33:52.061Z,15.30
2023-03-08T09:36:20.644Z,21.90
2023-03-08T09:38:50.241Z,20.60
2023-03-08T09:41:38.906Z,16.10
2023-03-08T09:44:35.096Z,18.50
2023-03-08T09:47:13.692Z,15.40
2023-03-08T09:49:45.487Z,157.30
2023-03-08T09:52:31.159Z,136.70
2023-03-08T09:55:01.784Z,26.90
2023-03-08T09:57:36.445Z,28.90
2023-03-08T10:00:12.024Z,30.70
2023-03-08T10:02:49.233Z,39.30
2023-03-08T10:05:25.072Z,23.70
2023-03-08T10:08:20.978Z,21.40
2023-03-08T10:11:00.949Z,24.60
2023-03-08T10:13:39.835Z,15.60
2023-03-08T10:16:17.078Z,15.80
2023-03-08T10:19:04.964Z,16.50
2023-03-08T10:21:37.548Z,14.80
2023-03-08T10:24:24.903Z,13.80
2023-03-08T10:26:54.878Z,12.60
2023-03-08T10:29:22.754Z,17.10
2023-03-08T10:31:51.355Z,13.80
2023-03-08T10:34:25.072Z,13.10
2023-03-08T10:36:58.653Z,10.90
2023-03-08T10:41:58.928Z,11.50
2023-03-08T10:44:45.295Z,13.00
2023-03-08T10:47:22.694Z,11.70
2023-03-08T10:50:09.582Z,21.10
2023-03-08T10:52:37.847Z,23.00
2023-03-08T10:55:17.885Z,54.80
2023-03-08T10:58:04.696Z,62.90
2023-03-08T11:00:38.944Z,18.30
2023-03-08T11:03:14.491Z,14.90
2023-03-08T11:05:57.869Z,27.30
2023-03-08T11:08:32.064Z,29.50
2023-03-08T11:11:07.675Z,39.70
2023-03-08T11:13:42.084Z,15.60
2023-03-08T11:16:37.180Z,14.00
2023-03-08T11:19:16.400Z,12.10
2023-03-08T11:22:15.701Z,11.40
2023-03-08T11:24:53.066Z,14.00
2023-03-08T11:27:26.998Z,13.60
2023-03-08T11:30:22.867Z,24.20
2023-03-08T11:33:03.131Z,11.50
2023-03-08T11:35:50.434Z,54.40
2023-03-08T11:38:24.863Z,20.00
2023-03-08T11:41:15.236Z,14.90
2023-03-08T11:43:55.198Z,24.00
2023-03-08T11:46:44.409Z,18.50
2023-03-08T11:49:28.822Z,18.10
2023-03-08T11:52:08.101Z,13.80
2023-03-08T11:55:16.219Z,15.30
2023-03-08T11:57:51.359Z,12.30
2023-03-08T12:00:29.937Z,20.70
2023-03-08T12:03:06.395Z,20.40
2023-03-08T12:05:39.161Z,15.40
2023-03-08T12:08:36.252Z,17.90
2023-03-08T12:11:07.243Z,17.20
2023-03-08T12:13:43.882Z,13.40
2023-03-08T12:16:24.207Z,11.10
2023-03-08T12:19:02.155Z,16.10
2023-03-08T12:21:49.286Z,10.30
2023-03-08T12:24:47.195Z,11.80
2023-03-08T12:27:30.809Z,12.60
2023-03-08T12:30:17.505Z,33.00
2023-03-08T12:32:47.616Z,25.10
2023-03-08T12:35:34.546Z,26.90
2023-03-08T12:38:45.885Z,18.10
2023-03-08T12:41:40.669Z,14.70
2023-03-08T12:44:29.427Z,13.80
2023-03-08T12:47:19.995Z,15.90
2023-03-08T12:49:56.673Z,17.30
2023-03-08T12:52:30.625Z,19.70
2023-03-08T12:55:33.290Z,14.50
2023-03-08T12:58:04.537Z,20.60
2023-03-08T13:00:36.598Z,20.40
2023-03-08T13:03:06.501Z,20.40
2023-03-08T13:05:38.932Z,18.00
2023-03-08T13:08:12.735Z,23.90
2023-03-08T13:10:57.295Z,24.50
2023-03-08T13:13:48.127Z,22.00
2023-03-08T13:16:33.865Z,26.30
2023-03-08T13:19:07.078Z,28.20
2023-03-08T13:22:04.318Z,20.60
2023-03-08T13:24:38.911Z,39.00
2023-03-08T13:27:35.932Z,23.30
2023-03-08T13:30:29.670Z,19.60
2023-03-08T13:32:59.325Z,21.40
2023-03-08T13:35:27.488Z,30.20
2023-03-08T13:38:01.476Z,23.40
2023-03-08T13:40:31.199Z,31.00
2023-03-08T13:43:09.324Z,21.30
2023-03-08T13:45:37.862Z,22.70
2023-03-08T13:48:08.965Z,30.00
2023-03-08T13:50:42.274Z,25.90
2023-03-08T13:53:17.477Z,22.20
2023-03-08T13:55:48.435Z,29.90
2023-03-08T13:58:39.834Z,25.70
2023-03-08T14:01:18.676Z,20.60
2023-03-08T14:03:47.146Z,26.50
2023-03-08T14:06:23.642Z,27.10
2023-03-08T14:08:53.685Z,24.70
2023-03-08T14:11:25.055Z,24.60
2023-03-08T14:13:55.339Z,28.90
2023-03-08T14:16:33.040Z,25.20
2023-03-08T14:19:10.058Z,22.50
2023-03-08T14:21:38.355Z,20.30
2023-03-08T14:24:09.918Z,24.10
2023-03-08T14:26:40.604Z,24.20
2023-03-08T14:29:29.757Z,24.30
2023-03-08T14:32:30.763Z,26.30
2023-03-08T14:35:16.238Z,20.90
2023-03-08T14:37:46.759Z,21.80
2023-03-08T14:40:29.414Z,21.90
2023-03-08T14:43:02.698Z,17.60
2023-03-08T14:45:49.863Z,18.90
2023-03-08T14:48:17.918Z,19.60
2023-03-08T14:51:04.550Z,20.30
2023-03-08T14:53:36.811Z,22.40
2023-03-08T14:56:13.599Z,27.30
2023-03-08T14:58:49.264Z,20.80
2023-03-08T15:01:34.903Z,23.10
2023-03-08T15:04:05.124Z,27.80
2023-03-08T15:06:36.115Z,34.20
2023-03-08T15:09:08.553Z,29.00
2023-03-08T15:11:37.042Z,29.80
2023-03-08T15:14:05.561Z,34.40
2023-03-08T15:16:33.571Z,35.20
2023-03-08T15:19:01.538Z,31.70
2023-03-08T15:21:30.035Z,34.70
2023-03-08T15:23:58.628Z,31.30
2023-03-08T15:26:31.745Z,28.70
2023-03-08T15:29:03.470Z,28.10
2023-03-08T15:31:32.200Z,26.50
2023-03-08T15:34:01.691Z,27.30
2023-03-08T15:36:34.674Z,30.40
2023-03-08T15:39:04.707Z,41.90
2023-03-08T15:41:32.950Z,45.80
2023-03-08T15:44:00.966Z,43.30
2023-03-08T15:46:28.972Z,43.10
2023-03-08T15:48:57.040Z,49.20
2023-03-08T15:51:31.362Z,64.60
2023-03-08T15:54:00.046Z,53.70
2023-03-08T15:56:28.323Z,49.20
2023-03-08T15:58:56.824Z,54.60
2023-03-08T16:01:26.835Z,36.90
2023-03-08T16:03:56.924Z,51.80
2023-03-08T16:06:25.656Z,65.40
2023-03-08T16:08:53.936Z,68.70
2023-03-08T16:11:22.541Z,61.10
2023-03-08T16:13:52.464Z,51.20
2023-03-08T16:16:21.597Z,70.90
2023-03-08T16:18:49.682Z,45.00
2023-03-08T16:21:17.553Z,57.60
2023-03-08T16:23:45.547Z,30.90
2023-03-08T16:26:17.463Z,44.60
2023-03-08T16:28:47.313Z,66.80
2023-03-08T16:31:20.309Z,37.10
2023-03-08T16:33:49.034Z,46.10
2023-03-08T16:36:17.053Z,45.40
2023-03-08T16:38:45.149Z,42.80
2023-03-08T16:41:14.394Z,32.80
2023-03-08T16:43:47.934Z,24.10
2023-03-08T16:48:49.296Z,20.80
2023-03-08T16:51:19.360Z,22.50
2023-03-08T16:53:48.014Z,24.10
2023-03-08T16:56:21.614Z,20.70
2023-03-08T16:58:49.992Z,28.50
2023-03-08T17:01:19.726Z,21.30
2023-03-08T17:03:48.035Z,19.60
2023-03-08T17:06:18.937Z,23.70
2023-03-08T17:08:47.398Z,39.60
2023-03-08T17:11:17.457Z,33.20
2023-03-08T17:13:52.595Z,25.60
2023-03-08T17:16:23.133Z,17.60
2023-03-08T17:18:52.027Z,27.00
2023-03-08T17:21:21.246Z,29.70
2023-03-08T17:23:51.092Z,35.90
2023-03-08T17:26:22.172Z,21.70
2023-03-08T17:28:52.432Z,34.40
2023-03-08T17:31:23.062Z,42.80
2023-03-08T17:33:52.478Z,38.10
2023-03-08T17:36:20.798Z,20.50
2023-03-08T17:38:51.434Z,42.50
2023-03-08T17:41:20.362Z,48.80
2023-03-08T17:43:48.612Z,37.60
2023-03-08T17:46:20.163Z,29.10
2023-03-08T17:48:50.473Z,29.70
2023-03-08T17:51:21.742Z,26.50
2023-03-08T17:53:50.177Z,36.50
2023-03-08T17:56:21.744Z,32.80
2023-03-08T17:58:49.753Z,37.60
2023-03-08T18:01:20.682Z,42.60
2023-03-08T18:03:49.067Z,51.90
2023-03-08T18:06:37.874Z,54.20
2023-03-08T18:09:12.973Z,41.40
2023-03-08T18:11:41.937Z,34.80
2023-03-08T18:14:15.737Z,28.20
2023-03-08T18:16:45.087Z,31.60
2023-03-08T18:19:13.193Z,31.20
2023-03-08T18:21:41.673Z,30.80
2023-03-08T18:24:11.756Z,34.00
2023-03-08T18:26:39.722Z,37.30
2023-03-08T18:29:07.938Z,32.80
2023-03-08T18:31:37.282Z,35.60
2023-03-08T18:34:06.822Z,44.20
2023-03-08T18:36:35.954Z,51.50
2023-03-08T18:39:06.581Z,68.90
2023-03-08T18:41:35.123Z,71.60
2023-03-08T18:44:03.827Z,72.20
2023-03-08T18:46:33.942Z,74.10
2023-03-08T18:49:07.509Z,75.30
2023-03-08T18:54:05.868Z,72.30
2023-03-08T18:56:33.799Z,108.60
2023-03-08T18:59:04.676Z,97.20
2023-03-08T19:01:33.911Z,58.30
2023-03-08T19:04:06.063Z,48.60
2023-03-08T19:06:35.608Z,50.20
2023-03-08T19:09:17.821Z,44.00
2023-03-08T19:11:48.187Z,59.60
2023-03-08T19:14:17.114Z,47.40
2023-03-08T19:16:45.393Z,46.50
2023-03-08T19:19:15.661Z,47.90
2023-03-08T19:21:51.278Z,49.80
2023-03-08T19:24:21.139Z,50.60
2023-03-08T19:26:52.637Z,45.10
2023-03-08T19:29:29.406Z,44.90
2023-03-08T19:31:58.652Z,48.40
2023-03-08T19:34:30.004Z,41.70
2023-03-08T19:36:59.081Z,41.80
2023-03-08T19:39:30.600Z,44.50
2023-03-08T19:42:01.565Z,47.90
2023-03-08T19:44:30.810Z,43.20
2023-03-08T19:47:00.438Z,37.20
2023-03-08T19:49:30.746Z,33.40
2023-03-08T19:52:01.220Z,32.10
2023-03-08T19:54:30.640Z,31.80
2023-03-08T19:56:59.865Z,30.40
2023-03-08T19:59:28.059Z,30.50
2023-03-08T20:01:56.933Z,27.10
2023-03-08T20:04:25.222Z,25.00
2023-03-08T20:06:53.232Z,26.40
2023-03-08T20:09:21.817Z,30.20
2023-03-08T20:11:53.334Z,26.70
2023-03-08T20:14:23.039Z,35.20
2023-03-08T20:16:51.503Z,41.10
2023-03-08T20:19:19.508Z,52.10
2023-03-08T20:21:47.443Z,61.00
2023-03-08T20:24:18.202Z,43.10
2023-03-08T20:26:46.942Z,50.80
2023-03-08T20:29:15.513Z,44.50
2023-03-08T20:31:45.814Z,35.60
2023-03-08T20:34:15.054Z,36.80
2023-03-08T20:36:43.124Z,29.90
2023-03-08T20:39:11.098Z,29.40
2023-03-08T20:41:39.195Z,24.60
2023-03-08T20:44:07.153Z,27.00
2023-03-08T20:46:35.178Z,23.60
2023-03-08T20:49:03.115Z,22.90
2023-03-08T20:51:31.079Z,21.90
2023-03-08T20:53:59.695Z,22.70
2023-03-08T20:56:28.754Z,20.50
2023-03-08T20:59:00.398Z,20.60
2023-03-08T21:01:30.912Z,20.70
2023-03-08T21:03:58.934Z,22.40
2023-03-08T21:06:30.251Z,22.50
2023-03-08T21:08:59.599Z,19.40
2023-03-08T21:11:28.609Z,18.40
2023-03-08T21:13:56.887Z,18.40
2023-03-08T21:16:27.411Z,16.20
2023-03-08T21:18:57.641Z,18.90
2023-03-08T21:21:27.271Z,17.90
2023-03-08T21:23:57.734Z,19.50
2023-03-08T21:26:27.734Z,20.50
2023-03-08T21:28:57.840Z,22.20
2023-03-08T21:31:26.139Z,19.40
2023-03-08T21:33:54.229Z,17.60
2023-03-08T21:36:22.461Z,18.50
2023-03-08T21:38:54.955Z,17.80
2023-03-08T21:41:31.419Z,16.20
2023-03-08T21:44:02.081Z,16.00
2023-03-08T21:46:29.985Z,16.00
2023-03-08T21:48:58.234Z,13.60
2023-03-08T21:51:26.491Z,14.30
2023-03-08T21:53:54.394Z,14.60
2023-03-08T21:56:22.338Z,13.80
2023-03-08T21:58:50.427Z,13.70
2023-03-08T22:01:21.966Z,12.30
2023-03-08T22:03:50.569Z,10.90
2023-03-08T22:06:18.834Z,10.80
2023-03-08T22:08:47.089Z,12.90
2023-03-08T22:11:15.689Z,10.10
2023-03-08T22:13:44.168Z,10.10
2023-03-08T22:16:12.105Z,9.70
2023-03-08T22:18:40.020Z,11.40
2023-03-08T22:21:07.952Z,10.60
2023-03-08T22:23:35.934Z,11.00
2023-03-08T22:26:07.930Z,11.90
2023-03-08T22:28:36.865Z,12.40
2023-03-08T22:31:13.036Z,10.90
2023-03-08T22:33:41.501Z,11.20
2023-03-08T22:36:11.875Z,12.50
2023-03-08T22:38:40.195Z,15.40
2023-03-08T22:41:21.290Z,12.30
2023-03-08T22:43:49.988Z,14.20
2023-03-08T22:46:21.561Z,10.80
2023-03-08T22:48:51.294Z,13.50
2023-03-08T22:51:21.006Z,12.80
2023-03-08T22:53:49.626Z,15.50
2023-03-08T22:56:26.110Z,18.10
2023-03-08T22:58:54.114Z,16.90
2023-03-08T23:01:23.644Z,17.20
2023-03-08T23:03:57.314Z,18.20
2023-03-08T23:08:58.198Z,22.90
2023-03-08T23:11:26.608Z,24.00
2023-03-08T23:13:54.494Z,25.20
2023-03-08T23:16:22.584Z,22.70
2023-03-08T23:18:52.563Z,26.20
2023-03-08T23:21:23.415Z,22.30
2023-03-08T23:23:51.522Z,25.20
2023-03-08T23:26:24.505Z,22.60
2023-03-08T23:28:54.540Z,27.50
2023-03-08T23:31:25.675Z,24.40
2023-03-08T23:33:54.969Z,24.00
2023-03-08T23:36:25.026Z,20.60
2023-03-08T23:38:53.548Z,22.00
2023-03-08T23:41:21.515Z,21.70
2023-03-08T23:46:19.279Z,23.50
2023-03-08T23:48:48.519Z,23.60
2023-03-08T23:51:20.251Z,24.40
2023-03-08T23:53:49.801Z,25.10
2023-03-08T23:56:31.057Z,22.20
2023-03-08T23:59:01.425Z,24.30
